sensor_id;sensor_type;location;lat;lon;timestamp;P1;durP1;ratioP1;P2;durP2;ratioP2
26780;SDS011;14366;49.184;8.054;2023-08-01T00:03:01;6.40;;;4.15;;
26780;SDS011;14366;49.184;8.054;2023-08-01T00:08:36;4.93;;;3.62;;
26780;SDS011;14366;49.184;8.054;2023-08-01T00:13:58;6.90;;;3.50;;
26780;SDS011;14366;49.184;8.054;2023-08-01T00:19:33;5.65;;;3.60;;
26780;SDS011;14366;49.184;8.054;2023-08-01T00:24:53;5.90;;;4.20;;
26780;SDS011;14366;49.184;8.054;2023-08-01T00:30:29;6.75;;;4.15;;
26780;SDS011;14366;49.184;8.054;2023-08-01T00:36:04;7.27;;;4.20;;
26780;SDS011;14366;49.184;8.054;2023-08-01T00:41:39;6.90;;;4.30;;
26780;SDS011;14366;49.184;8.054;2023-08-01T00:47:15;7.23;;;3.83;;
26780;SDS011;14366;49.184;8.054;2023-08-01T00:52:50;6.77;;;3.57;;
26780;SDS011;14366;49.184;8.054;2023-08-01T00:58:25;5.37;;;3.50;;
26780;SDS011;14366;49.184;8.054;2023-08-01T01:04:02;6.60;;;3.60;;
26780;SDS011;14366;49.184;8.054;2023-08-01T01:09:33;6.75;;;3.70;;
26780;SDS011;14366;49.184;8.054;2023-08-01T01:15:08;6.47;;;4.10;;
26780;SDS011;14366;49.184;8.054;2023-08-01T01:20:32;7.03;;;3.60;;
26780;SDS011;14366;49.184;8.054;2023-08-01T01:31:10;4.73;;;3.60;;
26780;SDS011;14366;49.184;8.054;2023-08-01T01:41:48;7.63;;;3.70;;
26780;SDS011;14366;49.184;8.054;2023-08-01T01:47:22;9.17;;;4.23;;
26780;SDS011;14366;49.184;8.054;2023-08-01T01:58:03;7.07;;;3.87;;
26780;SDS011;14366;49.184;8.054;2023-08-01T02:03:34;6.30;;;3.50;;
26780;SDS011;14366;49.184;8.054;2023-08-01T02:08:52;6.45;;;4.00;;
26780;SDS011;14366;49.184;8.054;2023-08-01T02:14:11;5.75;;;3.30;;
26780;SDS011;14366;49.184;8.054;2023-08-01T02:19:45;8.50;;;3.50;;
26780;SDS011;14366;49.184;8.054;2023-08-01T02:25:20;7.07;;;3.67;;
26780;SDS011;14366;49.184;8.054;2023-08-01T02:35:45;4.53;;;3.80;;
26780;SDS011;14366;49.184;8.054;2023-08-01T02:41:18;7.40;;;3.33;;
26780;SDS011;14366;49.184;8.054;2023-08-01T02:46:35;5.80;;;3.55;;
26780;SDS011;14366;49.184;8.054;2023-08-01T02:51:54;5.40;;;3.53;;
26780;SDS011;14366;49.184;8.054;2023-08-01T02:57:26;6.00;;;3.65;;
26780;SDS011;14366;49.184;8.054;2023-08-01T03:03:02;6.63;;;3.63;;
26780;SDS011;14366;49.184;8.054;2023-08-01T03:08:38;4.97;;;3.50;;
26780;SDS011;14366;49.184;8.054;2023-08-01T03:14:11;5.77;;;3.33;;
26780;SDS011;14366;49.184;8.054;2023-08-01T03:19:31;6.20;;;3.05;;
26780;SDS011;14366;49.184;8.054;2023-08-01T03:25:07;4.60;;;3.47;;
26780;SDS011;14366;49.184;8.054;2023-08-01T03:30:40;6.00;;;3.53;;
26780;SDS011;14366;49.184;8.054;2023-08-01T03:36:00;4.33;;;3.00;;
26780;SDS011;14366;49.184;8.054;2023-08-01T03:46:40;4.37;;;3.00;;
26780;SDS011;14366;49.184;8.054;2023-08-01T03:52:15;5.30;;;2.80;;
26780;SDS011;14366;49.184;8.054;2023-08-01T03:57:32;6.40;;;3.30;;
26780;SDS011;14366;49.184;8.054;2023-08-01T04:02:49;6.85;;;3.15;;
26780;SDS011;14366;49.184;8.054;2023-08-01T04:08:21;5.83;;;3.20;;
26780;SDS011;14366;49.184;8.054;2023-08-01T04:13:56;7.10;;;3.30;;
26780;SDS011;14366;49.184;8.054;2023-08-01T04:19:32;4.90;;;3.00;;
26780;SDS011;14366;49.184;8.054;2023-08-01T04:25:07;5.40;;;3.30;;
26780;SDS011;14366;49.184;8.054;2023-08-01T04:30:48;5.95;;;4.10;;
26780;SDS011;14366;49.184;8.054;2023-08-01T04:36:21;5.93;;;4.10;;
26780;SDS011;14366;49.184;8.054;2023-08-01T04:41:56;7.65;;;4.65;;
26780;SDS011;14366;49.184;8.054;2023-08-01T04:52:22;7.96;;;6.00;;
26780;SDS011;14366;49.184;8.054;2023-08-01T04:57:57;9.67;;;5.47;;
26780;SDS011;14366;49.184;8.054;2023-08-01T05:03:32;6.57;;;5.13;;
26780;SDS011;14366;49.184;8.054;2023-08-01T05:08:50;9.45;;;5.60;;
26780;SDS011;14366;49.184;8.054;2023-08-01T05:14:20;8.30;;;4.93;;
26780;SDS011;14366;49.184;8.054;2023-08-01T05:19:37;8.73;;;5.00;;
26780;SDS011;14366;49.184;8.054;2023-08-01T05:24:55;5.90;;;4.35;;
26780;SDS011;14366;49.184;8.054;2023-08-01T05:30:30;5.37;;;4.10;;
26780;SDS011;14366;49.184;8.054;2023-08-01T05:41:10;5.40;;;4.20;;
26780;SDS011;14366;49.184;8.054;2023-08-01T05:51:44;3.80;;;2.80;;
26780;SDS011;14366;49.184;8.054;2023-08-01T06:02:10;3.80;;;2.70;;
26780;SDS011;14366;49.184;8.054;2023-08-01T06:07:45;4.30;;;2.43;;
26780;SDS011;14366;49.184;8.054;2023-08-01T06:13:02;3.30;;;2.30;;
26780;SDS011;14366;49.184;8.054;2023-08-01T06:18:38;3.10;;;2.40;;
26780;SDS011;14366;49.184;8.054;2023-08-01T06:29:17;3.25;;;1.90;;
26780;SDS011;14366;49.184;8.054;2023-08-01T06:34:53;2.67;;;1.95;;
26780;SDS011;14366;49.184;8.054;2023-08-01T06:40:26;2.00;;;1.60;;
26780;SDS011;14366;49.184;8.054;2023-08-01T06:46:01;2.10;;;1.80;;
26780;SDS011;14366;49.184;8.054;2023-08-01T06:51:35;1.70;;;1.50;;
26780;SDS011;14366;49.184;8.054;2023-08-01T06:57:09;2.50;;;1.70;;
26780;SDS011;14366;49.184;8.054;2023-08-01T07:02:29;3.20;;;1.70;;
26780;SDS011;14366;49.184;8.054;2023-08-01T07:13:07;1.73;;;1.40;;
26780;SDS011;14366;49.184;8.054;2023-08-01T07:23:45;1.52;;;1.28;;
26780;SDS011;14366;49.184;8.054;2023-08-01T07:34:09;1.56;;;1.30;;
26780;SDS011;14366;49.184;8.054;2023-08-01T07:39:38;2.20;;;0.90;;
26780;SDS011;14366;49.184;8.054;2023-08-01T07:45:13;1.53;;;1.20;;
26780;SDS011;14366;49.184;8.054;2023-08-01T07:50:47;1.40;;;1.23;;
26780;SDS011;14366;49.184;8.054;2023-08-01T07:56:21;1.33;;;1.00;;
26780;SDS011;14366;49.184;8.054;2023-08-01T08:07:02;1.00;;;0.90;;
26780;SDS011;14366;49.184;8.054;2023-08-01T08:12:34;1.50;;;1.07;;
26780;SDS011;14366;49.184;8.054;2023-08-01T08:18:09;1.30;;;0.93;;
26780;SDS011;14366;49.184;8.054;2023-08-01T08:23:31;1.13;;;0.90;;
26780;SDS011;14366;49.184;8.054;2023-08-01T08:29:05;0.90;;;0.80;;
26780;SDS011;14366;49.184;8.054;2023-08-01T08:34:40;1.13;;;0.93;;
26780;SDS011;14366;49.184;8.054;2023-08-01T08:40:02;1.03;;;0.93;;
26780;SDS011;14366;49.184;8.054;2023-08-01T08:45:35;1.10;;;1.00;;
26780;SDS011;14366;49.184;8.054;2023-08-01T08:51:09;0.90;;;0.90;;
26780;SDS011;14366;49.184;8.054;2023-08-01T08:56:43;1.20;;;1.10;;
26780;SDS011;14366;49.184;8.054;2023-08-01T09:02:15;2.05;;;1.00;;
26780;SDS011;14366;49.184;8.054;2023-08-01T09:07:46;1.87;;;1.27;;
26780;SDS011;14366;49.184;8.054;2023-08-01T09:13:23;1.27;;;0.90;;
26780;SDS011;14366;49.184;8.054;2023-08-01T09:18:57;1.03;;;0.90;;
26780;SDS011;14366;49.184;8.054;2023-08-01T09:24:26;1.17;;;1.07;;
26780;SDS011;14366;49.184;8.054;2023-08-01T09:30:05;1.00;;;0.90;;
26780;SDS011;14366;49.184;8.054;2023-08-01T09:35:41;2.00;;;1.10;;
26780;SDS011;14366;49.184;8.054;2023-08-01T09:46:21;2.05;;;1.50;;
26780;SDS011;14366;49.184;8.054;2023-08-01T09:56:57;1.85;;;1.30;;
26780;SDS011;14366;49.184;8.054;2023-08-01T10:02:33;2.47;;;1.30;;
26780;SDS011;14366;49.184;8.054;2023-08-01T10:13:09;2.35;;;1.60;;
26780;SDS011;14366;49.184;8.054;2023-08-01T10:18:42;2.10;;;1.60;;
26780;SDS011;14366;49.184;8.054;2023-08-01T10:24:17;2.10;;;1.50;;
26780;SDS011;14366;49.184;8.054;2023-08-01T10:29:58;1.75;;;1.50;;
26780;SDS011;14366;49.184;8.054;2023-08-01T10:35:34;3.30;;;1.97;;
26780;SDS011;14366;49.184;8.054;2023-08-01T10:41:07;4.22;;;1.60;;
26780;SDS011;14366;49.184;8.054;2023-08-01T10:46:45;3.87;;;1.60;;
26780;SDS011;14366;49.184;8.054;2023-08-01T10:52:22;2.85;;;1.70;;
26780;SDS011;14366;49.184;8.054;2023-08-01T10:57:54;2.30;;;1.73;;
26780;SDS011;14366;49.184;8.054;2023-08-01T11:03:33;2.60;;;1.70;;
26780;SDS011;14366;49.184;8.054;2023-08-01T11:09:15;2.90;;;2.10;;
26780;SDS011;14366;49.184;8.054;2023-08-01T11:14:44;2.20;;;1.70;;
26780;SDS011;14366;49.184;8.054;2023-08-01T11:25:18;3.42;;;1.75;;
26780;SDS011;14366;49.184;8.054;2023-08-01T11:35:57;2.13;;;1.60;;
26780;SDS011;14366;49.184;8.054;2023-08-01T11:41:33;2.95;;;1.90;;
26780;SDS011;14366;49.184;8.054;2023-08-01T11:47:10;2.50;;;1.60;;
26780;SDS011;14366;49.184;8.054;2023-08-01T11:52:46;3.75;;;1.67;;
26780;SDS011;14366;49.184;8.054;2023-08-01T12:03:22;2.50;;;1.77;;
26780;SDS011;14366;49.184;8.054;2023-08-01T12:08:55;4.10;;;1.83;;
26780;SDS011;14366;49.184;8.054;2023-08-01T12:14:30;2.86;;;1.60;;
26780;SDS011;14366;49.184;8.054;2023-08-01T12:25:09;2.35;;;1.65;;
26780;SDS011;14366;49.184;8.054;2023-08-01T12:30:41;1.95;;;1.60;;
26780;SDS011;14366;49.184;8.054;2023-08-01T12:36:16;2.00;;;1.60;;
26780;SDS011;14366;49.184;8.054;2023-08-01T12:41:37;3.25;;;1.50;;
26780;SDS011;14366;49.184;8.054;2023-08-01T12:47:10;2.33;;;1.70;;
26780;SDS011;14366;49.184;8.054;2023-08-01T12:52:45;2.17;;;1.70;;
26780;SDS011;14366;49.184;8.054;2023-08-01T12:58:06;2.67;;;1.58;;
26780;SDS011;14366;49.184;8.054;2023-08-01T13:03:39;2.57;;;1.70;;
26780;SDS011;14366;49.184;8.054;2023-08-01T13:14:05;3.40;;;1.48;;
26780;SDS011;14366;49.184;8.054;2023-08-01T13:19:40;2.54;;;1.64;;
26780;SDS011;14366;49.184;8.054;2023-08-01T13:25:00;3.70;;;2.20;;
26780;SDS011;14366;49.184;8.054;2023-08-01T13:30:21;2.55;;;1.60;;
26780;SDS011;14366;49.184;8.054;2023-08-01T13:35:56;3.28;;;2.00;;
26780;SDS011;14366;49.184;8.054;2023-08-01T13:41:31;2.40;;;1.42;;
26780;SDS011;14366;49.184;8.054;2023-08-01T13:47:07;3.10;;;1.70;;
26780;SDS011;14366;49.184;8.054;2023-08-01T13:52:39;3.17;;;1.87;;
26780;SDS011;14366;49.184;8.054;2023-08-01T13:58:14;3.00;;;1.60;;
26780;SDS011;14366;49.184;8.054;2023-08-01T14:03:51;3.37;;;2.03;;
26780;SDS011;14366;49.184;8.054;2023-08-01T14:09:22;2.42;;;1.48;;
26780;SDS011;14366;49.184;8.054;2023-08-01T14:14:42;3.40;;;1.45;;
26780;SDS011;14366;49.184;8.054;2023-08-01T14:20:19;3.36;;;1.60;;
26780;SDS011;14366;49.184;8.054;2023-08-01T14:25:53;2.70;;;1.65;;
26780;SDS011;14366;49.184;8.054;2023-08-01T14:31:11;2.97;;;1.70;;
26780;SDS011;14366;49.184;8.054;2023-08-01T14:36:33;3.35;;;1.60;;
26780;SDS011;14366;49.184;8.054;2023-08-01T14:42:07;4.50;;;1.80;;
26780;SDS011;14366;49.184;8.054;2023-08-01T14:47:42;2.20;;;1.30;;
26780;SDS011;14366;49.184;8.054;2023-08-01T14:53:17;2.37;;;1.58;;
26780;SDS011;14366;49.184;8.054;2023-08-01T14:58:51;2.12;;;1.50;;
26780;SDS011;14366;49.184;8.054;2023-08-01T15:04:11;1.60;;;1.40;;
26780;SDS011;14366;49.184;8.054;2023-08-01T15:09:45;3.37;;;1.70;;
26780;SDS011;14366;49.184;8.054;2023-08-01T15:15:19;2.75;;;1.55;;
26780;SDS011;14366;49.184;8.054;2023-08-01T15:20:54;3.35;;;1.70;;
26780;SDS011;14366;49.184;8.054;2023-08-01T15:26:31;3.63;;;1.90;;
26780;SDS011;14366;49.184;8.054;2023-08-01T15:32:06;3.37;;;1.70;;
26780;SDS011;14366;49.184;8.054;2023-08-01T15:37:38;3.10;;;1.75;;
26780;SDS011;14366;49.184;8.054;2023-08-01T15:43:15;3.18;;;1.90;;
26780;SDS011;14366;49.184;8.054;2023-08-01T15:48:47;2.10;;;1.60;;
26780;SDS011;14366;49.184;8.054;2023-08-01T15:54:07;3.33;;;1.75;;
26780;SDS011;14366;49.184;8.054;2023-08-01T15:59:38;2.80;;;1.80;;
26780;SDS011;14366;49.184;8.054;2023-08-01T16:05:08;4.07;;;1.80;;
26780;SDS011;14366;49.184;8.054;2023-08-01T16:10:41;2.42;;;1.72;;
26780;SDS011;14366;49.184;8.054;2023-08-01T16:21:36;4.12;;;2.00;;
26780;SDS011;14366;49.184;8.054;2023-08-01T16:27:09;4.80;;;1.75;;
26780;SDS011;14366;49.184;8.054;2023-08-01T16:32:29;2.53;;;1.70;;
26780;SDS011;14366;49.184;8.054;2023-08-01T16:37:50;3.00;;;1.85;;
26780;SDS011;14366;49.184;8.054;2023-08-01T16:43:22;3.30;;;2.00;;
26780;SDS011;14366;49.184;8.054;2023-08-01T16:48:42;2.87;;;1.87;;
26780;SDS011;14366;49.184;8.054;2023-08-01T16:54:03;4.68;;;1.73;;
26780;SDS011;14366;49.184;8.054;2023-08-01T16:59:39;3.35;;;2.05;;
26780;SDS011;14366;49.184;8.054;2023-08-01T17:05:14;3.90;;;2.08;;
26780;SDS011;14366;49.184;8.054;2023-08-01T17:10:47;2.50;;;1.70;;
26780;SDS011;14366;49.184;8.054;2023-08-01T17:16:22;5.60;;;2.10;;
26780;SDS011;14366;49.184;8.054;2023-08-01T17:21:54;2.97;;;2.00;;
26780;SDS011;14366;49.184;8.054;2023-08-01T17:27:30;4.18;;;2.05;;
26780;SDS011;14366;49.184;8.054;2023-08-01T17:33:06;3.67;;;2.07;;
26780;SDS011;14366;49.184;8.054;2023-08-01T17:38:26;2.83;;;1.90;;
26780;SDS011;14366;49.184;8.054;2023-08-01T17:43:45;3.20;;;1.90;;
26780;SDS011;14366;49.184;8.054;2023-08-01T17:54:20;3.10;;;1.60;;
26780;SDS011;14366;49.184;8.054;2023-08-01T17:59:38;3.12;;;2.10;;
26780;SDS011;14366;49.184;8.054;2023-08-01T18:05:13;3.65;;;1.87;;
26780;SDS011;14366;49.184;8.054;2023-08-01T18:10:29;5.20;;;2.08;;
26780;SDS011;14366;49.184;8.054;2023-08-01T18:16:05;5.65;;;2.33;;
26780;SDS011;14366;49.184;8.054;2023-08-01T18:21:37;5.70;;;1.85;;
26780;SDS011;14366;49.184;8.054;2023-08-01T18:26:57;6.00;;;2.10;;
26780;SDS011;14366;49.184;8.054;2023-08-01T18:32:30;4.75;;;2.15;;
26780;SDS011;14366;49.184;8.054;2023-08-01T18:38:02;5.25;;;2.10;;
26780;SDS011;14366;49.184;8.054;2023-08-01T18:48:25;5.22;;;1.98;;
26780;SDS011;14366;49.184;8.054;2023-08-01T18:53:57;4.37;;;2.33;;
26780;SDS011;14366;49.184;8.054;2023-08-01T18:59:32;5.10;;;2.33;;
26780;SDS011;14366;49.184;8.054;2023-08-01T19:05:06;4.72;;;2.12;;
26780;SDS011;14366;49.184;8.054;2023-08-01T19:10:38;4.05;;;2.15;;
26780;SDS011;14366;49.184;8.054;2023-08-01T19:15:55;4.25;;;1.90;;
26780;SDS011;14366;49.184;8.054;2023-08-01T19:21:13;4.55;;;2.33;;
26780;SDS011;14366;49.184;8.054;2023-08-01T19:26:45;4.80;;;2.33;;
26780;SDS011;14366;49.184;8.054;2023-08-01T19:32:02;6.32;;;2.42;;
26780;SDS011;14366;49.184;8.054;2023-08-01T19:37:21;3.83;;;2.07;;
26780;SDS011;14366;49.184;8.054;2023-08-01T19:42:53;4.23;;;2.20;;
26780;SDS011;14366;49.184;8.054;2023-08-01T19:48:13;5.95;;;2.53;;
26780;SDS011;14366;49.184;8.054;2023-08-01T19:53:31;4.30;;;2.20;;
26780;SDS011;14366;49.184;8.054;2023-08-01T19:59:03;5.10;;;2.28;;
26780;SDS011;14366;49.184;8.054;2023-08-01T20:04:20;5.53;;;2.50;;
26780;SDS011;14366;49.184;8.054;2023-08-01T20:09:42;6.93;;;2.60;;
26780;SDS011;14366;49.184;8.054;2023-08-01T20:15:13;5.95;;;2.20;;
26780;SDS011;14366;49.184;8.054;2023-08-01T20:20:45;4.40;;;1.90;;
26780;SDS011;14366;49.184;8.054;2023-08-01T20:31:22;4.57;;;2.10;;
26780;SDS011;14366;49.184;8.054;2023-08-01T20:36:51;4.18;;;2.20;;
26780;SDS011;14366;49.184;8.054;2023-08-01T20:42:08;4.87;;;2.60;;
26780;SDS011;14366;49.184;8.054;2023-08-01T20:47:30;5.68;;;2.70;;
26780;SDS011;14366;49.184;8.054;2023-08-01T20:53:02;5.00;;;2.50;;
26780;SDS011;14366;49.184;8.054;2023-08-01T20:58:18;5.45;;;2.42;;
26780;SDS011;14366;49.184;8.054;2023-08-01T21:03:52;8.05;;;2.30;;
26780;SDS011;14366;49.184;8.054;2023-08-01T21:09:27;5.95;;;2.53;;
26780;SDS011;14366;49.184;8.054;2023-08-01T21:20:09;4.07;;;2.30;;
26780;SDS011;14366;49.184;8.054;2023-08-01T21:25:43;5.50;;;2.50;;
26780;SDS011;14366;49.184;8.054;2023-08-01T21:36:07;4.33;;;2.37;;
26780;SDS011;14366;49.184;8.054;2023-08-01T21:41:38;2.95;;;1.95;;
26780;SDS011;14366;49.184;8.054;2023-08-01T21:46:58;4.07;;;1.95;;
26780;SDS011;14366;49.184;8.054;2023-08-01T21:52:17;3.00;;;2.10;;
26780;SDS011;14366;49.184;8.054;2023-08-01T21:57:51;4.83;;;2.20;;
26780;SDS011;14366;49.184;8.054;2023-08-01T22:03:23;4.27;;;2.10;;
26780;SDS011;14366;49.184;8.054;2023-08-01T22:08:45;5.65;;;2.40;;
26780;SDS011;14366;49.184;8.054;2023-08-01T22:14:19;3.30;;;2.20;;
26780;SDS011;14366;49.184;8.054;2023-08-01T22:19:54;4.77;;;2.30;;
26780;SDS011;14366;49.184;8.054;2023-08-01T22:25:16;4.30;;;2.10;;
26780;SDS011;14366;49.184;8.054;2023-08-01T22:30:51;6.40;;;2.20;;
26780;SDS011;14366;49.184;8.054;2023-08-01T22:36:11;3.60;;;2.20;;
26780;SDS011;14366;49.184;8.054;2023-08-01T22:41:47;3.90;;;2.00;;
26780;SDS011;14366;49.184;8.054;2023-08-01T22:52:23;4.40;;;1.90;;
26780;SDS011;14366;49.184;8.054;2023-08-01T23:02:46;4.07;;;1.90;;
26780;SDS011;14366;49.184;8.054;2023-08-01T23:13:20;3.70;;;2.10;;
26780;SDS011;14366;49.184;8.054;2023-08-01T23:23:54;2.63;;;2.03;;
26780;SDS011;14366;49.184;8.054;2023-08-01T23:29:29;4.13;;;2.30;;
26780;SDS011;14366;49.184;8.054;2023-08-01T23:35:04;5.67;;;2.30;;
26780;SDS011;14366;49.184;8.054;2023-08-01T23:40:26;3.23;;;2.17;;
26780;SDS011;14366;49.184;8.054;2023-08-01T23:45:59;5.50;;;2.40;;
26780;SDS011;14366;49.184;8.054;2023-08-01T23:51:19;6.23;;;2.30;;
26780;SDS011;14366;49.184;8.054;2023-08-01T23:56:55;2.70;;;1.80;;
